»·PEaware :: N316AL KLAX-KSNA

N316AL :: KLAX-KSNA

FLIGHT INFORMATION

Flight Status: Arrived
Operator: Privately registered:
United States
More flights under this callsign
Pilot: Anonymous 16342 (16342)
Aircraft: Unknown
(EPIC)
More flights by this aircraft type
Origin: KLAX Los Angeles Intl
United States
Destination: KSNA John Wayne-Orange Co
United States
More flights between these airports :: More routes between these airports
Route: SLI8 SLI
File this flight plan on PilotEdge
Remarks: I-6 attempt
Altitude:
(Current/Filed)
5,000ft
Speed:
(Current/Filed)
180kts
Departed: 01-Jul-18 08:55 AM
Arrived: 01-Jul-18 09:28 AM
Distance/Time
Traveled:
31nm/0:33
Distance/Time
To Go:
Arrived

Flight Plot

Page will automatically refresh every two minutes.

Flight plan parsing failed; only flown route is shown


Map Options




Map Legend


Flown Route
Filed Route
Departure Airport
Arrival Airport
Navaid (VOR, NDB)
Fix

Horizontal Profiles

Position Reports

Time Latitude Longitude Heading Altitude Ground
Speed
01-Jul-18 08:32 33.933535 -118.396943 287 111ft 0kts
01-Jul-18 08:33 33.933535 -118.396943 287 111ft 0kts
01-Jul-18 08:34 33.933535 -118.396943 287 111ft 0kts
01-Jul-18 08:35 33.933535 -118.396943 287 111ft 0kts
01-Jul-18 08:36 33.933535 -118.396943 287 111ft 0kts
01-Jul-18 08:37 33.933535 -118.396943 287 111ft 0kts
01-Jul-18 08:38 33.933535 -118.396943 287 111ft 0kts
01-Jul-18 08:39 33.933535 -118.396943 287 111ft 0kts
01-Jul-18 08:40 33.933535 -118.396943 287 111ft 0kts
01-Jul-18 08:41 33.933535 -118.396943 287 111ft 0kts
01-Jul-18 08:42 33.933535 -118.396943 287 111ft 0kts
01-Jul-18 08:43 33.933535 -118.396943 287 111ft 0kts
01-Jul-18 08:44 33.933535 -118.396943 287 111ft 0kts
01-Jul-18 08:45 33.933535 -118.396943 287 111ft 0kts
01-Jul-18 08:46 33.933535 -118.396943 287 111ft 0kts
01-Jul-18 08:47 33.934320 -118.398184 347 112ft 12kts
01-Jul-18 08:48 33.935073 -118.393066 82 106ft 26kts
01-Jul-18 08:50 33.935840 -118.385764 87 99ft 28kts
01-Jul-18 08:51 33.936571 -118.382754 350 99ft 0kts
01-Jul-18 08:52 33.936571 -118.382754 350 99ft 0kts
01-Jul-18 08:53 33.936571 -118.382754 350 99ft 0kts
01-Jul-18 08:54 33.936571 -118.382754 350 99ft 0kts
01-Jul-18 08:55 33.936571 -118.382754 350 99ft 0kts
01-Jul-18 08:56 33.936309 -118.393181 263 109ft 110kts
01-Jul-18 08:57 33.931580 -118.437280 263 1022ft 144kts
01-Jul-18 08:58 33.920035 -118.477536 212 2500ft 132kts
01-Jul-18 08:59 33.889360 -118.498811 194 3935ft 135kts
01-Jul-18 09:00 33.857184 -118.472722 142 5093ft 168kts
01-Jul-18 09:01 33.814721 -118.434851 142 5090ft 200kts
01-Jul-18 09:02 33.771076 -118.396547 142 5090ft 192kts
01-Jul-18 09:03 33.728158 -118.359339 142 5094ft 188kts
01-Jul-18 09:04 33.686144 -118.323419 142 5099ft 184kts
01-Jul-18 09:05 33.648492 -118.284647 99 5102ft 178kts
01-Jul-18 09:06 33.678324 -118.239666 50 5095ft 179kts
01-Jul-18 09:07 33.708580 -118.192577 56 5090ft 178kts
01-Jul-18 09:08 33.737265 -118.141164 58 4378ft 201kts
01-Jul-18 09:09 33.765446 -118.088515 59 4081ft 190kts
01-Jul-18 09:10 33.790231 -118.037119 63 4082ft 175kts
01-Jul-18 09:11 33.810392 -117.988201 63 4083ft 168kts
01-Jul-18 09:12 33.829940 -117.938640 63 4085ft 169kts
01-Jul-18 09:13 33.848759 -117.889499 63 4085ft 172kts
01-Jul-18 09:14 33.868533 -117.836972 63 4084ft 173kts
01-Jul-18 09:15 33.887428 -117.786567 63 4086ft 174kts
01-Jul-18 09:16 33.907299 -117.734109 62 4089ft 174kts
01-Jul-18 09:17 33.938056 -117.695622 13 4095ft 172kts
01-Jul-18 09:18 33.982892 -117.676538 24 4096ft 172kts
01-Jul-18 09:19 33.980518 -117.636683 177 4093ft 181kts
01-Jul-18 09:20 33.946216 -117.680797 229 3601ft 190kts
01-Jul-18 09:20 33.914484 -117.713042 214 3589ft 171kts
01-Jul-18 09:22 33.868504 -117.745777 208 3490ft 162kts
01-Jul-18 09:23 33.830252 -117.770539 208 3305ft 164kts
01-Jul-18 09:24 33.791820 -117.795075 207 2443ft 147kts
01-Jul-18 09:24 33.764546 -117.812479 207 1907ft 135kts
01-Jul-18 09:25 33.734884 -117.831285 207 1275ft 119kts
01-Jul-18 09:26 33.708077 -117.848262 206 675ft 99kts
01-Jul-18 09:27 33.683928 -117.863559 209 136ft 95kts
01-Jul-18 09:28 33.670019 -117.872669 251 60ft 16kts
01-Jul-18 09:29 33.670165 -117.873432 291 60ft 0kts
01-Jul-18 09:30 33.670165 -117.873432 291 60ft 0kts
01-Jul-18 09:31 33.671289 -117.873112 26 60ft 19kts
01-Jul-18 09:32 33.673382 -117.872553 340 60ft 1kts
01-Jul-18 09:33 33.673390 -117.872556 340 60ft 0kts
01-Jul-18 09:34 33.673390 -117.872556 340 60ft 0kts
01-Jul-18 09:35 33.673390 -117.872556 340 60ft 0kts
01-Jul-18 09:36 33.673390 -117.872556 340 60ft 0kts
01-Jul-18 09:37 33.673390 -117.872556 340 60ft 0kts
01-Jul-18 09:38 33.673390 -117.872556 340 60ft 0kts
01-Jul-18 09:39 33.673390 -117.872556 340 60ft 0kts
01-Jul-18 09:40 33.673390 -117.872556 340 60ft 0kts
01-Jul-18 09:41 33.673390 -117.872556 340 60ft 0kts
01-Jul-18 09:42 33.673390 -117.872556 340 60ft 0kts

Navigation Log

Ident Type
Flight plan parsing failed, navigation log unavailable